sensor_id;sensor_type;location;lat;lon;timestamp;pressure;altitude;pressure_sealevel;temperature;humidity
11971;BME280;6045;42.682;23.294;2023-03-21T00:02:22;94464.91;;;13.62;52.69
11971;BME280;6045;42.682;23.294;2023-03-21T00:04:51;94462.03;;;13.47;52.45
11971;BME280;6045;42.682;23.294;2023-03-21T00:07:17;94454.50;;;13.44;52.78
11971;BME280;6045;42.682;23.294;2023-03-21T00:09:44;94463.78;;;13.37;53.01
11971;BME280;6045;42.682;23.294;2023-03-21T00:12:11;94469.59;;;13.29;53.52
11971;BME280;6045;42.682;23.294;2023-03-21T00:14:38;94458.56;;;13.25;53.75
11971;BME280;6045;42.682;23.294;2023-03-21T00:17:05;94463.13;;;13.25;53.67
11971;BME280;6045;42.682;23.294;2023-03-21T00:19:32;94453.44;;;13.24;54.12
11971;BME280;6045;42.682;23.294;2023-03-21T00:22:04;94460.75;;;13.28;54.04
11971;BME280;6045;42.682;23.294;2023-03-21T00:24:31;94450.56;;;13.30;54.14
11971;BME280;6045;42.682;23.294;2023-03-21T00:26:58;94457.53;;;13.31;54.19
11971;BME280;6045;42.682;23.294;2023-03-21T00:29:25;94454.63;;;13.33;53.96
11971;BME280;6045;42.682;23.294;2023-03-21T00:31:52;94465.94;;;13.35;54.05
11971;BME280;6045;42.682;23.294;2023-03-21T00:34:18;94453.06;;;13.37;53.65
11971;BME280;6045;42.682;23.294;2023-03-21T00:36:45;94457.34;;;13.38;53.41
11971;BME280;6045;42.682;23.294;2023-03-21T00:39:13;94463.78;;;13.37;53.52
11971;BME280;6045;42.682;23.294;2023-03-21T00:41:40;94455.41;;;13.33;53.62
11971;BME280;6045;42.682;23.294;2023-03-21T00:44:07;94459.75;;;13.34;53.07
11971;BME280;6045;42.682;23.294;2023-03-21T00:46:34;94453.81;;;13.32;53.43
11971;BME280;6045;42.682;23.294;2023-03-21T00:49:01;94450.06;;;13.33;53.79
11971;BME280;6045;42.682;23.294;2023-03-21T00:51:28;94443.13;;;13.37;53.19
11971;BME280;6045;42.682;23.294;2023-03-21T00:53:55;94442.81;;;13.34;53.59
11971;BME280;6045;42.682;23.294;2023-03-21T00:56:24;94453.75;;;13.27;53.48
11971;BME280;6045;42.682;23.294;2023-03-21T00:58:51;94444.31;;;13.25;53.96
11971;BME280;6045;42.682;23.294;2023-03-21T01:01:18;94447.69;;;13.15;54.12
11971;BME280;6045;42.682;23.294;2023-03-21T01:03:44;94443.97;;;12.99;54.58
11971;BME280;6045;42.682;23.294;2023-03-21T01:06:16;94440.75;;;12.97;54.49
11971;BME280;6045;42.682;23.294;2023-03-21T01:08:45;94446.91;;;12.98;54.59
11971;BME280;6045;42.682;23.294;2023-03-21T01:11:15;94443.34;;;12.92;55.07
11971;BME280;6045;42.682;23.294;2023-03-21T01:14:01;94442.06;;;12.95;54.81
11971;BME280;6045;42.682;23.294;2023-03-21T01:16:28;94446.03;;;12.92;54.57
11971;BME280;6045;42.682;23.294;2023-03-21T01:18:55;94441.41;;;12.88;54.54
11971;BME280;6045;42.682;23.294;2023-03-21T01:21:22;94439.06;;;12.75;55.14
11971;BME280;6045;42.682;23.294;2023-03-21T01:23:49;94435.91;;;12.78;55.01
11971;BME280;6045;42.682;23.294;2023-03-21T01:26:15;94439.97;;;12.80;54.97
11971;BME280;6045;42.682;23.294;2023-03-21T01:28:43;94448.84;;;12.81;55.07
11971;BME280;6045;42.682;23.294;2023-03-21T01:31:13;94446.44;;;12.84;55.22
11971;BME280;6045;42.682;23.294;2023-03-21T01:33:41;94448.88;;;12.86;55.24
11971;BME280;6045;42.682;23.294;2023-03-21T01:36:09;94446.19;;;12.86;55.24
11971;BME280;6045;42.682;23.294;2023-03-21T01:38:39;94442.72;;;12.85;54.78
11971;BME280;6045;42.682;23.294;2023-03-21T01:41:06;94441.41;;;12.88;54.96
11971;BME280;6045;42.682;23.294;2023-03-21T01:43:35;94442.72;;;12.85;54.91
11971;BME280;6045;42.682;23.294;2023-03-21T01:46:19;94437.59;;;12.84;55.35
11971;BME280;6045;42.682;23.294;2023-03-21T01:48:49;94441.09;;;12.84;55.12
11971;BME280;6045;42.682;23.294;2023-03-21T01:51:18;94442.75;;;12.69;54.92
11971;BME280;6045;42.682;23.294;2023-03-21T01:53:46;94443.66;;;12.58;55.75
11971;BME280;6045;42.682;23.294;2023-03-21T01:56:19;94435.94;;;12.61;55.60
11971;BME280;6045;42.682;23.294;2023-03-21T01:58:47;94435.94;;;12.61;55.24
11971;BME280;6045;42.682;23.294;2023-03-21T02:01:17;94431.81;;;12.54;55.96
11971;BME280;6045;42.682;23.294;2023-03-21T02:03:48;94429.47;;;12.41;56.96
11971;BME280;6045;42.682;23.294;2023-03-21T02:06:23;94431.34;;;12.40;56.67
11971;BME280;6045;42.682;23.294;2023-03-21T02:08:58;94438.50;;;12.34;56.38
11971;BME280;6045;42.682;23.294;2023-03-21T02:11:26;94433.00;;;12.24;56.52
11971;BME280;6045;42.682;23.294;2023-03-21T02:13:54;94417.31;;;12.16;56.72
11971;BME280;6045;42.682;23.294;2023-03-21T02:16:28;94422.09;;;11.98;56.84
11971;BME280;6045;42.682;23.294;2023-03-21T02:19:08;94423.56;;;11.89;57.37
11971;BME280;6045;42.682;23.294;2023-03-21T02:22:09;94419.97;;;11.83;57.68
11971;BME280;6045;42.682;23.294;2023-03-21T02:27:44;94420.97;;;11.77;57.85
11971;BME280;6045;42.682;23.294;2023-03-21T02:30:30;94411.28;;;11.76;57.97
11971;BME280;6045;42.682;23.294;2023-03-21T02:33:10;94421.38;;;11.86;57.93
11971;BME280;6045;42.682;23.294;2023-03-21T02:35:59;94418.28;;;11.94;57.83
11971;BME280;6045;42.682;23.294;2023-03-21T02:38:38;94425.09;;;12.01;57.49
11971;BME280;6045;42.682;23.294;2023-03-21T02:41:15;94425.53;;;12.10;57.62
11971;BME280;6045;42.682;23.294;2023-03-21T02:43:44;94422.09;;;12.14;57.36
11971;BME280;6045;42.682;23.294;2023-03-21T02:46:15;94420.81;;;12.17;57.08
11971;BME280;6045;42.682;23.294;2023-03-21T02:48:48;94409.34;;;12.21;57.09
11971;BME280;6045;42.682;23.294;2023-03-21T02:51:19;94410.91;;;12.17;56.53
11971;BME280;6045;42.682;23.294;2023-03-21T02:53:52;94411.47;;;12.19;56.58
11971;BME280;6045;42.682;23.294;2023-03-21T02:56:21;94413.66;;;12.22;57.04
11971;BME280;6045;42.682;23.294;2023-03-21T02:58:51;94410.19;;;12.22;57.21
11971;BME280;6045;42.682;23.294;2023-03-21T03:01:18;94406.69;;;12.21;57.20
11971;BME280;6045;42.682;23.294;2023-03-21T03:03:45;94411.22;;;12.21;57.07
11971;BME280;6045;42.682;23.294;2023-03-21T03:06:16;94416.00;;;12.19;56.93
11971;BME280;6045;42.682;23.294;2023-03-21T03:09:00;94408.72;;;12.14;56.98
11971;BME280;6045;42.682;23.294;2023-03-21T03:11:34;94412.94;;;12.10;57.06
11971;BME280;6045;42.682;23.294;2023-03-21T03:14:32;94413.16;;;12.09;57.00
11971;BME280;6045;42.682;23.294;2023-03-21T03:17:15;94420.91;;;12.05;57.72
11971;BME280;6045;42.682;23.294;2023-03-21T03:19:52;94418.28;;;11.94;57.82
11971;BME280;6045;42.682;23.294;2023-03-21T03:22:26;94417.31;;;11.83;57.92
11971;BME280;6045;42.682;23.294;2023-03-21T03:25:00;94422.91;;;11.82;58.11
11971;BME280;6045;42.682;23.294;2023-03-21T03:27:32;94420.38;;;11.75;58.51
11971;BME280;6045;42.682;23.294;2023-03-21T03:30:02;94426.22;;;11.72;58.53
11971;BME280;6045;42.682;23.294;2023-03-21T03:32:34;94426.69;;;11.69;58.60
11971;BME280;6045;42.682;23.294;2023-03-21T03:35:03;94427.13;;;11.66;59.02
11971;BME280;6045;42.682;23.294;2023-03-21T03:37:32;94426.47;;;11.59;59.19
11971;BME280;6045;42.682;23.294;2023-03-21T03:40:06;94425.53;;;11.37;59.60
11971;BME280;6045;42.682;23.294;2023-03-21T03:42:35;94425.63;;;11.14;59.57
11971;BME280;6045;42.682;23.294;2023-03-21T03:45:05;94419.00;;;11.05;59.99
11971;BME280;6045;42.682;23.294;2023-03-21T03:47:35;94420.94;;;10.92;60.39
11971;BME280;6045;42.682;23.294;2023-03-21T03:50:08;94427.31;;;10.91;60.66
11971;BME280;6045;42.682;23.294;2023-03-21T03:52:41;94421.88;;;10.86;61.04
11971;BME280;6045;42.682;23.294;2023-03-21T03:55:13;94417.47;;;10.80;61.13
11971;BME280;6045;42.682;23.294;2023-03-21T03:57:42;94422.56;;;10.82;61.07
11971;BME280;6045;42.682;23.294;2023-03-21T04:00:12;94410.94;;;10.88;61.38
11971;BME280;6045;42.682;23.294;2023-03-21T04:02:40;94420.94;;;10.92;61.46
11971;BME280;6045;42.682;23.294;2023-03-21T04:05:08;94412.78;;;10.99;60.86
11971;BME280;6045;42.682;23.294;2023-03-21T04:07:35;94423.91;;;11.08;60.66
11971;BME280;6045;42.682;23.294;2023-03-21T04:10:02;94422.97;;;11.14;60.03
11971;BME280;6045;42.682;23.294;2023-03-21T04:12:30;94420.41;;;11.19;60.33
11971;BME280;6045;42.682;23.294;2023-03-21T04:14:57;94423.13;;;11.24;60.08
11971;BME280;6045;42.682;23.294;2023-03-21T04:17:24;94412.22;;;11.25;60.37
11971;BME280;6045;42.682;23.294;2023-03-21T04:19:51;94419.19;;;11.26;60.17
11971;BME280;6045;42.682;23.294;2023-03-21T04:22:17;94417.06;;;11.28;59.93
11971;BME280;6045;42.682;23.294;2023-03-21T04:24:45;94411.97;;;11.27;59.81
11971;BME280;6045;42.682;23.294;2023-03-21T04:27:12;94417.06;;;11.28;59.52
11971;BME280;6045;42.682;23.294;2023-03-21T04:29:41;94414.66;;;11.27;59.86
11971;BME280;6045;42.682;23.294;2023-03-21T04:32:07;94404.81;;;11.16;59.33
11971;BME280;6045;42.682;23.294;2023-03-21T04:34:40;94406.47;;;11.05;59.77
11971;BME280;6045;42.682;23.294;2023-03-21T04:37:08;94418.44;;;11.02;60.07
11971;BME280;6045;42.682;23.294;2023-03-21T04:39:36;94420.34;;;11.02;60.24
11971;BME280;6045;42.682;23.294;2023-03-21T04:42:03;94410.41;;;11.02;60.20
11971;BME280;6045;42.682;23.294;2023-03-21T04:44:30;94409.63;;;11.02;60.22
11971;BME280;6045;42.682;23.294;2023-03-21T04:46:58;94417.88;;;11.00;60.06
11971;BME280;6045;42.682;23.294;2023-03-21T04:49:25;94417.78;;;10.95;60.24
11971;BME280;6045;42.682;23.294;2023-03-21T04:51:52;94424.28;;;10.99;59.50
11971;BME280;6045;42.682;23.294;2023-03-21T04:54:19;94418.56;;;11.08;59.34
11971;BME280;6045;42.682;23.294;2023-03-21T04:56:46;94425.03;;;11.12;59.10
11971;BME280;6045;42.682;23.294;2023-03-21T04:59:14;94427.34;;;11.20;58.96
11971;BME280;6045;42.682;23.294;2023-03-21T05:01:41;94426.31;;;11.21;59.27
11971;BME280;6045;42.682;23.294;2023-03-21T05:04:11;94420.47;;;11.24;58.97
11971;BME280;6045;42.682;23.294;2023-03-21T05:06:39;94431.28;;;11.29;58.86
11971;BME280;6045;42.682;23.294;2023-03-21T05:09:07;94434.03;;;11.90;82.29
11971;BME280;6045;42.682;23.294;2023-03-21T05:11:36;94430.63;;;12.28;77.08
11971;BME280;6045;42.682;23.294;2023-03-21T05:14:05;94428.75;;;12.45;67.94
11971;BME280;6045;42.682;23.294;2023-03-21T05:16:32;94429.69;;;12.94;73.89
11971;BME280;6045;42.682;23.294;2023-03-21T05:18:59;94418.44;;;13.35;68.98
11971;BME280;6045;42.682;23.294;2023-03-21T05:21:30;94431.00;;;13.83;69.35
11971;BME280;6045;42.682;23.294;2023-03-21T05:23:58;94423.91;;;14.04;68.28
11971;BME280;6045;42.682;23.294;2023-03-21T05:26:28;94428.41;;;14.57;75.75
11971;BME280;6045;42.682;23.294;2023-03-21T05:28:55;94429.44;;;14.92;75.08
11971;BME280;6045;42.682;23.294;2023-03-21T05:31:22;94425.59;;;14.78;53.95
11971;BME280;6045;42.682;23.294;2023-03-21T05:33:48;94431.41;;;14.28;56.49
11971;BME280;6045;42.682;23.294;2023-03-21T05:36:15;94429.94;;;13.84;55.69
11971;BME280;6045;42.682;23.294;2023-03-21T05:38:43;94438.47;;;13.54;55.82
11971;BME280;6045;42.682;23.294;2023-03-21T05:41:11;94435.69;;;13.44;56.47
11971;BME280;6045;42.682;23.294;2023-03-21T05:43:37;94436.59;;;13.28;56.66
11971;BME280;6045;42.682;23.294;2023-03-21T05:46:05;94441.28;;;13.16;57.23
11971;BME280;6045;42.682;23.294;2023-03-21T05:48:31;94427.94;;;13.21;61.51
11971;BME280;6045;42.682;23.294;2023-03-21T05:50:59;94422.56;;;13.21;58.14
11971;BME280;6045;42.682;23.294;2023-03-21T05:53:25;94411.34;;;13.29;56.27
11971;BME280;6045;42.682;23.294;2023-03-21T05:55:54;94420.28;;;13.35;55.87
11971;BME280;6045;42.682;23.294;2023-03-21T05:58:20;94413.84;;;13.36;56.30
11971;BME280;6045;42.682;23.294;2023-03-21T06:00:47;94410.88;;;13.32;56.32
11971;BME280;6045;42.682;23.294;2023-03-21T06:03:14;94407.09;;;13.33;54.99
11971;BME280;6045;42.682;23.294;2023-03-21T06:05:41;94409.78;;;13.33;55.08
11971;BME280;6045;42.682;23.294;2023-03-21T06:08:07;94407.06;;;13.28;54.58
11971;BME280;6045;42.682;23.294;2023-03-21T06:10:34;94404.94;;;13.30;56.12
11971;BME280;6045;42.682;23.294;2023-03-21T06:13:02;94409.34;;;13.41;55.83
11971;BME280;6045;42.682;23.294;2023-03-21T06:15:30;94406.41;;;13.69;58.37
11971;BME280;6045;42.682;23.294;2023-03-21T06:17:56;94400.13;;;13.86;56.85
11971;BME280;6045;42.682;23.294;2023-03-21T06:20:23;94406.13;;;13.98;56.15
11971;BME280;6045;42.682;23.294;2023-03-21T06:22:50;94404.50;;;13.97;55.64
11971;BME280;6045;42.682;23.294;2023-03-21T06:25:18;94396.25;;;14.03;55.56
11971;BME280;6045;42.682;23.294;2023-03-21T06:27:46;94396.84;;;14.10;55.52
11971;BME280;6045;42.682;23.294;2023-03-21T06:30:15;94392.66;;;14.24;54.02
11971;BME280;6045;42.682;23.294;2023-03-21T06:32:42;94389.81;;;14.36;54.52
11971;BME280;6045;42.682;23.294;2023-03-21T06:35:09;94394.44;;;14.46;54.01
11971;BME280;6045;42.682;23.294;2023-03-21T06:37:35;94396.88;;;14.47;54.18
11971;BME280;6045;42.682;23.294;2023-03-21T06:40:03;94403.94;;;14.58;53.47
11971;BME280;6045;42.682;23.294;2023-03-21T06:42:33;94402.09;;;14.64;53.56
11971;BME280;6045;42.682;23.294;2023-03-21T06:45:00;94402.16;;;14.74;53.35
11971;BME280;6045;42.682;23.294;2023-03-21T06:47:28;94400.88;;;14.81;53.16
11971;BME280;6045;42.682;23.294;2023-03-21T06:49:55;94411.38;;;14.88;52.94
11971;BME280;6045;42.682;23.294;2023-03-21T06:52:21;94419.75;;;14.96;52.51
11971;BME280;6045;42.682;23.294;2023-03-21T06:54:48;94413.91;;;15.04;53.16
11971;BME280;6045;42.682;23.294;2023-03-21T06:57:15;94415.25;;;15.12;52.13
11971;BME280;6045;42.682;23.294;2023-03-21T06:59:44;94419.34;;;15.25;50.41
11971;BME280;6045;42.682;23.294;2023-03-21T07:02:11;94414.28;;;15.38;50.61
11971;BME280;6045;42.682;23.294;2023-03-21T07:04:40;94412.75;;;15.57;49.24
11971;BME280;6045;42.682;23.294;2023-03-21T07:07:07;94412.00;;;15.77;48.80
11971;BME280;6045;42.682;23.294;2023-03-21T07:09:33;94416.34;;;15.93;47.92
11971;BME280;6045;42.682;23.294;2023-03-21T07:12:04;94415.56;;;16.13;47.83
11971;BME280;6045;42.682;23.294;2023-03-21T07:14:30;94414.72;;;16.27;46.43
11971;BME280;6045;42.682;23.294;2023-03-21T07:16:59;94417.44;;;16.37;46.70
11971;BME280;6045;42.682;23.294;2023-03-21T07:19:25;94418.25;;;16.33;47.26
11971;BME280;6045;42.682;23.294;2023-03-21T07:21:54;94424.19;;;16.25;46.51
11971;BME280;6045;42.682;23.294;2023-03-21T07:24:20;94420.16;;;16.17;46.77
11971;BME280;6045;42.682;23.294;2023-03-21T07:26:47;94420.69;;;16.19;47.08
11971;BME280;6045;42.682;23.294;2023-03-21T07:29:14;94411.50;;;16.10;46.79
11971;BME280;6045;42.682;23.294;2023-03-21T07:31:41;94412.31;;;16.01;47.22
11971;BME280;6045;42.682;23.294;2023-03-21T07:34:08;94410.69;;;16.15;46.49
11971;BME280;6045;42.682;23.294;2023-03-21T07:36:35;94413.94;;;16.22;46.65
11971;BME280;6045;42.682;23.294;2023-03-21T07:39:03;94411.50;;;16.25;46.88
11971;BME280;6045;42.682;23.294;2023-03-21T07:41:30;94422.31;;;16.15;46.06
11971;BME280;6045;42.682;23.294;2023-03-21T07:43:57;94418.75;;;15.95;45.38
11971;BME280;6045;42.682;23.294;2023-03-21T07:46:24;94421.47;;;16.10;45.98
11971;BME280;6045;42.682;23.294;2023-03-21T07:48:51;94421.75;;;16.38;45.62
11971;BME280;6045;42.682;23.294;2023-03-21T07:51:18;94415.03;;;16.66;45.31
11971;BME280;6045;42.682;23.294;2023-03-21T07:53:44;94427.94;;;16.94;43.11
11971;BME280;6045;42.682;23.294;2023-03-21T07:56:14;94421.69;;;17.04;43.97
11971;BME280;6045;42.682;23.294;2023-03-21T07:58:41;94423.28;;;17.15;43.87
11971;BME280;6045;42.682;23.294;2023-03-21T08:01:08;94427.50;;;17.41;59.14
11971;BME280;6045;42.682;23.294;2023-03-21T08:03:35;94418.69;;;17.85;59.96
11971;BME280;6045;42.682;23.294;2023-03-21T08:06:02;94414.59;;;18.26;58.92
11971;BME280;6045;42.682;23.294;2023-03-21T08:08:29;94421.59;;;18.66;58.20
11971;BME280;6045;42.682;23.294;2023-03-21T08:10:56;94412.59;;;18.75;50.11
11971;BME280;6045;42.682;23.294;2023-03-21T08:13:24;94417.06;;;18.90;54.32
11971;BME280;6045;42.682;23.294;2023-03-21T08:15:52;94419.72;;;19.19;54.61
11971;BME280;6045;42.682;23.294;2023-03-21T08:18:18;94415.16;;;19.43;53.46
11971;BME280;6045;42.682;23.294;2023-03-21T08:20:50;94418.94;;;19.42;44.46
11971;BME280;6045;42.682;23.294;2023-03-21T08:23:17;94409.25;;;19.12;39.71
11971;BME280;6045;42.682;23.294;2023-03-21T08:25:44;94408.09;;;18.61;39.26
11971;BME280;6045;42.682;23.294;2023-03-21T08:28:11;94398.53;;;18.06;39.96
11971;BME280;6045;42.682;23.294;2023-03-21T08:30:39;94401.94;;;17.83;41.36
11971;BME280;6045;42.682;23.294;2023-03-21T08:33:06;94402.56;;;17.59;42.85
11971;BME280;6045;42.682;23.294;2023-03-21T08:35:33;94410.97;;;17.58;42.91
11971;BME280;6045;42.682;23.294;2023-03-21T08:38:01;94403.66;;;17.63;45.18
11971;BME280;6045;42.682;23.294;2023-03-21T08:40:27;94407.38;;;17.72;43.37
11971;BME280;6045;42.682;23.294;2023-03-21T08:42:54;94405.22;;;17.69;43.16
11971;BME280;6045;42.682;23.294;2023-03-21T08:45:21;94404.75;;;17.57;43.66
11971;BME280;6045;42.682;23.294;2023-03-21T08:47:51;94406.69;;;17.47;43.04
11971;BME280;6045;42.682;23.294;2023-03-21T08:50:19;94409.38;;;17.57;44.46
11971;BME280;6045;42.682;23.294;2023-03-21T08:52:46;94407.72;;;17.61;44.06
11971;BME280;6045;42.682;23.294;2023-03-21T08:55:14;94397.38;;;17.73;43.65
11971;BME280;6045;42.682;23.294;2023-03-21T08:57:42;94403.56;;;17.78;42.13
11971;BME280;6045;42.682;23.294;2023-03-21T09:00:11;94396.38;;;17.59;42.79
11971;BME280;6045;42.682;23.294;2023-03-21T09:02:39;94399.38;;;17.47;42.77
11971;BME280;6045;42.682;23.294;2023-03-21T09:05:08;94393.94;;;17.57;43.51
11971;BME280;6045;42.682;23.294;2023-03-21T09:07:36;94398.81;;;17.60;44.49
11971;BME280;6045;42.682;23.294;2023-03-21T09:10:05;94397.75;;;17.56;45.38
11971;BME280;6045;42.682;23.294;2023-03-21T09:12:32;94390.47;;;17.57;43.90
11971;BME280;6045;42.682;23.294;2023-03-21T09:14:59;94394.22;;;17.61;42.85
11971;BME280;6045;42.682;23.294;2023-03-21T09:17:27;94388.56;;;17.52;41.79
11971;BME280;6045;42.682;23.294;2023-03-21T09:19:54;94384.88;;;17.28;43.41
11971;BME280;6045;42.682;23.294;2023-03-21T09:22:23;94384.81;;;17.38;44.07
11971;BME280;6045;42.682;23.294;2023-03-21T09:24:50;94379.66;;;17.52;43.19
11971;BME280;6045;42.682;23.294;2023-03-21T09:27:18;94374.50;;;17.50;44.02
11971;BME280;6045;42.682;23.294;2023-03-21T09:29:47;94367.50;;;17.54;42.98
11971;BME280;6045;42.682;23.294;2023-03-21T09:32:14;94362.44;;;17.82;46.65
11971;BME280;6045;42.682;23.294;2023-03-21T09:34:42;94371.00;;;17.99;43.34
11971;BME280;6045;42.682;23.294;2023-03-21T09:37:09;94363.94;;;17.64;42.73
11971;BME280;6045;42.682;23.294;2023-03-21T09:39:39;94376.28;;;17.75;42.52
11971;BME280;6045;42.682;23.294;2023-03-21T09:42:15;94361.88;;;17.90;41.61
11971;BME280;6045;42.682;23.294;2023-03-21T09:44:54;94353.69;;;17.95;42.13
11971;BME280;6045;42.682;23.294;2023-03-21T09:47:26;94344.03;;;17.84;42.33
11971;BME280;6045;42.682;23.294;2023-03-21T09:50:01;94340.66;;;18.02;42.17
11971;BME280;6045;42.682;23.294;2023-03-21T09:52:32;94348.59;;;17.88;41.37
11971;BME280;6045;42.682;23.294;2023-03-21T09:55:14;94350.25;;;17.84;40.28
11971;BME280;6045;42.682;23.294;2023-03-21T09:57:46;94351.81;;;17.95;42.58
11971;BME280;6045;42.682;23.294;2023-03-21T10:00:20;94351.53;;;17.97;43.75
11971;BME280;6045;42.682;23.294;2023-03-21T10:02:51;94341.16;;;18.09;42.61
11971;BME280;6045;42.682;23.294;2023-03-21T10:05:20;94337.75;;;18.27;41.78
11971;BME280;6045;42.682;23.294;2023-03-21T10:07:52;94337.34;;;18.43;40.55
11971;BME280;6045;42.682;23.294;2023-03-21T10:10:26;94340.22;;;18.57;40.79
11971;BME280;6045;42.682;23.294;2023-03-21T10:12:55;94334.41;;;18.92;40.73
11971;BME280;6045;42.682;23.294;2023-03-21T10:15:23;94321.59;;;19.22;38.00
11971;BME280;6045;42.682;23.294;2023-03-21T10:17:55;94312.44;;;19.97;38.86
11971;BME280;6045;42.682;23.294;2023-03-21T10:20:25;94308.72;;;20.85;37.43
11971;BME280;6045;42.682;23.294;2023-03-21T10:22:54;94312.88;;;21.50;36.35
11971;BME280;6045;42.682;23.294;2023-03-21T10:25:29;94316.56;;;22.04;35.17
11971;BME280;6045;42.682;23.294;2023-03-21T10:27:58;94320.22;;;22.96;33.16
11971;BME280;6045;42.682;23.294;2023-03-21T10:30:35;94315.66;;;22.83;33.21
11971;BME280;6045;42.682;23.294;2023-03-21T10:33:05;94316.47;;;22.84;32.66
11971;BME280;6045;42.682;23.294;2023-03-21T10:35:35;94311.47;;;23.08;32.75
11971;BME280;6045;42.682;23.294;2023-03-21T10:38:05;94313.88;;;23.18;32.49
11971;BME280;6045;42.682;23.294;2023-03-21T10:40:33;94314.84;;;23.53;31.57
11971;BME280;6045;42.682;23.294;2023-03-21T10:43:19;94321.16;;;24.05;30.74
11971;BME280;6045;42.682;23.294;2023-03-21T10:45:56;94319.22;;;24.65;28.96
11971;BME280;6045;42.682;23.294;2023-03-21T10:48:23;94315.03;;;24.59;28.97
11971;BME280;6045;42.682;23.294;2023-03-21T10:50:52;94316.97;;;24.59;29.71
11971;BME280;6045;42.682;23.294;2023-03-21T10:53:22;94316.03;;;24.29;29.34
11971;BME280;6045;42.682;23.294;2023-03-21T10:55:56;94312.81;;;24.01;30.66
11971;BME280;6045;42.682;23.294;2023-03-21T10:58:26;94311.16;;;23.74;30.99
11971;BME280;6045;42.682;23.294;2023-03-21T11:00:55;94304.88;;;23.57;29.67
11971;BME280;6045;42.682;23.294;2023-03-21T11:03:26;94291.88;;;23.54;29.49
11971;BME280;6045;42.682;23.294;2023-03-21T11:06:01;94298.34;;;23.19;29.65
11971;BME280;6045;42.682;23.294;2023-03-21T11:08:28;94291.41;;;22.73;29.79
11971;BME280;6045;42.682;23.294;2023-03-21T11:11:01;94294.25;;;22.68;31.44
11971;BME280;6045;42.682;23.294;2023-03-21T11:13:33;94286.28;;;22.49;31.24
11971;BME280;6045;42.682;23.294;2023-03-21T11:16:07;94288.97;;;22.41;29.75
11971;BME280;6045;42.682;23.294;2023-03-21T11:18:40;94280.44;;;22.12;30.66
11971;BME280;6045;42.682;23.294;2023-03-21T11:21:08;94276.09;;;22.33;31.51
11971;BME280;6045;42.682;23.294;2023-03-21T11:23:39;94275.91;;;22.82;31.38
11971;BME280;6045;42.682;23.294;2023-03-21T11:26:11;94280.34;;;23.17;29.37
11971;BME280;6045;42.682;23.294;2023-03-21T11:28:41;94269.41;;;23.57;28.88
11971;BME280;6045;42.682;23.294;2023-03-21T11:31:09;94265.75;;;24.21;28.61
11971;BME280;6045;42.682;23.294;2023-03-21T11:33:38;94258.53;;;24.08;27.64
11971;BME280;6045;42.682;23.294;2023-03-21T11:36:23;94252.56;;;23.80;27.95
11971;BME280;6045;42.682;23.294;2023-03-21T11:38:57;94254.06;;;23.22;30.28
11971;BME280;6045;42.682;23.294;2023-03-21T11:41:29;94248.97;;;22.89;29.14
11971;BME280;6045;42.682;23.294;2023-03-21T11:43:57;94247.94;;;22.68;29.58
11971;BME280;6045;42.682;23.294;2023-03-21T11:46:26;94247.16;;;22.45;29.63
11971;BME280;6045;42.682;23.294;2023-03-21T11:48:54;94243.06;;;22.04;30.81
11971;BME280;6045;42.682;23.294;2023-03-21T11:51:28;94249.53;;;21.72;31.61
11971;BME280;6045;42.682;23.294;2023-03-21T11:54:04;94248.09;;;21.39;32.74
11971;BME280;6045;42.682;23.294;2023-03-21T11:56:37;94244.13;;;21.23;31.82
11971;BME280;6045;42.682;23.294;2023-03-21T11:59:26;94246.69;;;21.55;39.85
11971;BME280;6045;42.682;23.294;2023-03-21T12:02:06;94239.72;;;21.85;42.19
11971;BME280;6045;42.682;23.294;2023-03-21T12:04:45;94232.84;;;22.09;40.09
11971;BME280;6045;42.682;23.294;2023-03-21T12:07:40;94229.50;;;22.12;41.23
11971;BME280;6045;42.682;23.294;2023-03-21T12:10:34;94225.19;;;22.11;41.96
11971;BME280;6045;42.682;23.294;2023-03-21T12:13:27;94225.00;;;22.08;33.86
11971;BME280;6045;42.682;23.294;2023-03-21T12:16:19;94218.31;;;22.14;40.05
11971;BME280;6045;42.682;23.294;2023-03-21T12:19:11;94214.72;;;22.05;39.02
11971;BME280;6045;42.682;23.294;2023-03-21T12:21:50;94220.03;;;22.10;42.77
11971;BME280;6045;42.682;23.294;2023-03-21T12:24:22;94214.50;;;22.23;36.37
11971;BME280;6045;42.682;23.294;2023-03-21T12:26:58;94215.66;;;22.22;38.40
11971;BME280;6045;42.682;23.294;2023-03-21T12:29:47;94213.25;;;21.99;36.68
11971;BME280;6045;42.682;23.294;2023-03-21T12:32:34;94193.75;;;22.05;40.62
11971;BME280;6045;42.682;23.294;2023-03-21T12:35:28;94200.72;;;22.20;34.98
11971;BME280;6045;42.682;23.294;2023-03-21T12:38:04;94186.75;;;22.13;37.71
11971;BME280;6045;42.682;23.294;2023-03-21T12:40:45;94195.09;;;22.16;39.89
11971;BME280;6045;42.682;23.294;2023-03-21T12:43:34;94190.28;;;22.13;36.21
11971;BME280;6045;42.682;23.294;2023-03-21T12:46:18;94195.50;;;22.01;38.23
11971;BME280;6045;42.682;23.294;2023-03-21T12:49:14;94196.00;;;22.03;37.13
11971;BME280;6045;42.682;23.294;2023-03-21T12:51:45;94189.25;;;22.01;38.78
11971;BME280;6045;42.682;23.294;2023-03-21T12:54:24;94186.38;;;21.83;34.71
11971;BME280;6045;42.682;23.294;2023-03-21T12:56:56;94183.63;;;21.75;34.72
11971;BME280;6045;42.682;23.294;2023-03-21T12:59:30;94179.34;;;21.60;35.67
11971;BME280;6045;42.682;23.294;2023-03-21T13:02:14;94173.09;;;21.60;39.21
11971;BME280;6045;42.682;23.294;2023-03-21T13:04:51;94181.38;;;21.77;38.86
11971;BME280;6045;42.682;23.294;2023-03-21T13:07:22;94168.47;;;21.83;36.48
11971;BME280;6045;42.682;23.294;2023-03-21T13:09:50;94167.59;;;21.73;32.77
11971;BME280;6045;42.682;23.294;2023-03-21T13:12:36;94159.19;;;21.39;33.09
11971;BME280;6045;42.682;23.294;2023-03-21T13:15:17;94156.19;;;21.27;34.84
11971;BME280;6045;42.682;23.294;2023-03-21T13:17:53;94161.38;;;21.01;32.61
11971;BME280;6045;42.682;23.294;2023-03-21T13:20:25;94159.84;;;20.60;32.83
11971;BME280;6045;42.682;23.294;2023-03-21T13:22:55;94156.84;;;20.34;33.94